createdAt,value
2022-12-11T00:00:34.720Z,38.32
2022-12-11T00:02:39.160Z,38.46
2022-12-11T00:04:43.545Z,38.43
2022-12-11T00:06:47.892Z,38.34
2022-12-11T00:08:52.257Z,38.48
2022-12-11T00:10:56.590Z,38.3
2022-12-11T00:13:00.923Z,38.49
2022-12-11T00:15:05.331Z,38.4
2022-12-11T00:17:09.886Z,38.27
2022-12-11T00:19:14.235Z,38.5
2022-12-11T00:21:18.503Z,38.45
2022-12-11T00:23:22.809Z,38.44
2022-12-11T00:25:27.086Z,38.63
2022-12-11T00:27:31.496Z,38.7
2022-12-11T00:29:35.805Z,38.89
2022-12-11T00:31:40.318Z,38.79
2022-12-11T00:33:44.626Z,38.57
2022-12-11T00:35:49.001Z,38.6
2022-12-11T00:37:53.316Z,38.59
2022-12-11T00:39:57.636Z,38.74
2022-12-11T00:42:01.947Z,38.92
2022-12-11T00:44:06.216Z,38.47
2022-12-11T00:46:10.777Z,38.42
2022-12-11T00:48:15.168Z,38.53
2022-12-11T00:50:19.519Z,38.49
2022-12-11T00:52:23.843Z,38.41
2022-12-11T00:54:28.159Z,38.45
2022-12-11T00:56:32.465Z,38.45
2022-12-11T00:58:36.777Z,38.49
2022-12-11T01:00:41.124Z,38.89
2022-12-11T01:02:45.633Z,38.88
2022-12-11T01:04:49.909Z,38.95
2022-12-11T01:06:54.244Z,39.04
2022-12-11T01:08:58.577Z,38.89
2022-12-11T01:11:02.920Z,38.96
2022-12-11T01:13:07.205Z,38.94
2022-12-11T01:15:12.707Z,39.02
2022-12-11T01:17:17.307Z,39.01
2022-12-11T01:19:21.628Z,39.27
2022-12-11T01:21:25.968Z,39.06
2022-12-11T01:23:30.286Z,39.09
2022-12-11T01:25:34.597Z,39.45
2022-12-11T01:27:38.967Z,39.21
2022-12-11T01:29:43.271Z,39.38
2022-12-11T01:31:47.603Z,39.65
2022-12-11T01:33:51.904Z,39.54
2022-12-11T01:35:56.249Z,39.42
2022-12-11T01:38:00.564Z,39.68
2022-12-11T01:40:04.849Z,39.74
2022-12-11T01:42:09.232Z,39.83
2022-12-11T01:44:13.575Z,39.7
2022-12-11T01:46:18.070Z,39.67
2022-12-11T01:48:22.399Z,39.58
2022-12-11T01:50:26.720Z,39.61
2022-12-11T01:52:31.022Z,39.55
2022-12-11T01:54:35.331Z,39.63
2022-12-11T01:56:39.619Z,39.52
2022-12-11T01:58:43.980Z,39.49
2022-12-11T02:00:48.294Z,39.45
2022-12-11T02:02:52.846Z,39.46
2022-12-11T02:04:57.262Z,39.39
2022-12-11T02:07:01.585Z,39.43
2022-12-11T02:09:05.881Z,39.49
2022-12-11T02:11:10.226Z,39.5
2022-12-11T02:13:14.572Z,39.58
2022-12-11T02:15:18.993Z,39.58
2022-12-11T02:17:23.303Z,39.65
2022-12-11T02:19:27.619Z,39.73
2022-12-11T02:21:31.963Z,39.73
2022-12-11T02:23:36.271Z,39.75
2022-12-11T02:25:40.605Z,39.74
2022-12-11T02:27:44.947Z,39.73
2022-12-11T02:29:49.316Z,39.77
2022-12-11T02:31:53.860Z,39.75
2022-12-11T02:33:58.179Z,39.7
2022-12-11T02:36:02.532Z,39.8
2022-12-11T02:38:06.924Z,39.68
2022-12-11T02:40:11.215Z,39.63
2022-12-11T02:42:15.467Z,39.57
2022-12-11T02:44:19.778Z,39.6
2022-12-11T02:46:24.087Z,39.51
2022-12-11T02:48:28.387Z,39.62
2022-12-11T02:50:32.714Z,39.66
2022-12-11T02:52:37.257Z,39.56
2022-12-11T02:54:41.543Z,39.6
2022-12-11T02:56:45.842Z,39.64
2022-12-11T02:58:58.613Z,39.7
2022-12-11T03:01:03.315Z,39.74
2022-12-11T03:03:07.688Z,39.8
2022-12-11T03:05:13.084Z,39.91
2022-12-11T03:07:17.472Z,39.97
2022-12-11T03:09:21.732Z,40
2022-12-11T03:11:26.055Z,39.94
2022-12-11T03:13:30.325Z,40.03
2022-12-11T03:15:34.649Z,39.87
2022-12-11T03:17:38.967Z,39.93
2022-12-11T03:19:43.283Z,39.79
2022-12-11T03:21:47.624Z,39.73
2022-12-11T03:23:52.709Z,39.67
2022-12-11T03:25:58.068Z,39.66
2022-12-11T03:28:02.358Z,39.68
2022-12-11T03:30:06.699Z,39.69
2022-12-11T03:32:11.081Z,39.66
2022-12-11T03:34:15.391Z,39.55
2022-12-11T03:36:19.693Z,39.71
2022-12-11T03:38:24.058Z,39.72
2022-12-11T03:40:28.344Z,39.6
2022-12-11T03:42:32.632Z,39.49
2022-12-11T03:44:36.941Z,39.66
2022-12-11T03:46:41.229Z,39.66
2022-12-11T03:48:45.543Z,39.61
2022-12-11T03:50:49.833Z,39.6
2022-12-11T03:52:54.132Z,39.56
2022-12-11T03:54:58.575Z,39.6
2022-12-11T03:57:02.885Z,39.6
2022-12-11T03:59:07.162Z,39.55
2022-12-11T04:01:11.479Z,39.48
2022-12-11T04:03:16.690Z,39.44
2022-12-11T04:05:21.029Z,39.49
2022-12-11T04:07:25.306Z,39.51
2022-12-11T04:09:29.611Z,39.49
2022-12-11T04:11:33.995Z,39.47
2022-12-11T04:13:38.338Z,39.51
2022-12-11T04:15:42.972Z,39.46
2022-12-11T04:17:47.302Z,39.54
2022-12-11T04:19:51.628Z,39.58
2022-12-11T04:21:55.937Z,39.61
2022-12-11T04:24:00.204Z,39.56
2022-12-11T04:26:04.533Z,39.58
2022-12-11T04:28:08.847Z,39.54
2022-12-11T04:30:13.160Z,39.54
2022-12-11T04:32:17.548Z,39.65
2022-12-11T04:34:21.832Z,39.5
2022-12-11T04:36:26.158Z,39.76
2022-12-11T04:38:30.462Z,39.83
2022-12-11T04:40:34.780Z,39.81
2022-12-11T04:42:39.072Z,39.75
2022-12-11T04:44:43.371Z,39.73
2022-12-11T04:46:47.910Z,39.71
2022-12-11T04:48:59.320Z,39.8
2022-12-11T04:51:03.687Z,39.85
2022-12-11T04:53:07.996Z,39.68
2022-12-11T04:55:13.636Z,39.77
2022-12-11T04:57:18.082Z,39.71
2022-12-11T04:59:22.382Z,39.61
2022-12-11T05:01:26.854Z,39.72
2022-12-11T05:03:31.206Z,39.75
2022-12-11T05:05:35.554Z,39.72
2022-12-11T05:07:39.850Z,39.72
2022-12-11T05:09:44.162Z,39.74
2022-12-11T05:11:48.464Z,39.77
2022-12-11T05:13:52.795Z,39.86
2022-12-11T05:15:57.532Z,39.83
2022-12-11T05:18:01.867Z,39.92
2022-12-11T05:20:06.216Z,39.99
2022-12-11T05:22:10.496Z,39.95
2022-12-11T05:24:14.804Z,39.99
2022-12-11T05:26:19.129Z,39.9
2022-12-11T05:28:23.431Z,40.05
2022-12-11T05:30:27.779Z,39.92
2022-12-11T05:32:32.094Z,39.98
2022-12-11T05:34:36.444Z,39.81
2022-12-11T05:36:40.792Z,39.77
2022-12-11T05:38:45.088Z,39.93
2022-12-11T05:40:49.418Z,39.95
2022-12-11T05:42:53.741Z,39.98
2022-12-11T05:44:58.048Z,39.94
2022-12-11T05:47:02.609Z,39.7
2022-12-11T05:49:06.952Z,39.59
2022-12-11T05:51:11.257Z,39.92
2022-12-11T05:53:15.582Z,39.97
2022-12-11T05:55:19.854Z,39.82
2022-12-11T05:57:24.176Z,39.83
2022-12-11T05:59:28.452Z,39.74
2022-12-11T06:01:32.717Z,39.91
2022-12-11T06:03:37.091Z,39.99
2022-12-11T06:05:41.397Z,39.97
2022-12-11T06:07:45.857Z,40.02
2022-12-11T06:09:50.176Z,40.02
2022-12-11T06:11:54.490Z,39.99
2022-12-11T06:13:58.836Z,40
2022-12-11T06:16:03.325Z,39.94
2022-12-11T06:18:07.655Z,39.97
2022-12-11T06:20:11.978Z,40
2022-12-11T06:22:16.272Z,39.98
2022-12-11T06:24:20.682Z,39.79
2022-12-11T06:26:24.985Z,39.91
2022-12-11T06:28:29.302Z,40.04
2022-12-11T06:30:40.771Z,40.04
2022-12-11T06:32:45.043Z,40.05
2022-12-11T06:34:49.336Z,40.05
2022-12-11T06:36:53.653Z,40.03
2022-12-11T06:38:57.973Z,40.13
2022-12-11T06:41:02.279Z,40.17
2022-12-11T06:43:06.600Z,40.19
2022-12-11T06:45:12.039Z,40.23
2022-12-11T06:47:16.562Z,40.25
2022-12-11T06:49:20.858Z,40.25
2022-12-11T06:51:25.174Z,40.25
2022-12-11T06:53:29.565Z,40.25
2022-12-11T06:55:33.889Z,40.22
2022-12-11T06:57:38.168Z,40.23
2022-12-11T06:59:42.489Z,40.27
2022-12-11T07:01:46.876Z,40.21
2022-12-11T07:03:51.197Z,40.3
2022-12-11T07:05:55.520Z,40.31
2022-12-11T07:08:00.002Z,40.16
2022-12-11T07:10:10.328Z,40.42
2022-12-11T07:12:14.639Z,40.41
2022-12-11T07:14:18.954Z,40.41
2022-12-11T07:16:23.645Z,40.47
2022-12-11T07:18:28.088Z,40.53
2022-12-11T07:20:32.408Z,40.48
2022-12-11T07:22:40.387Z,40.53
2022-12-11T07:24:47.404Z,40.54
2022-12-11T07:26:51.668Z,40.54
2022-12-11T07:28:56.015Z,40.54
2022-12-11T07:31:00.352Z,40.56
2022-12-11T07:33:04.845Z,40.63
2022-12-11T07:35:09.968Z,40.62
2022-12-11T07:37:14.509Z,40.66
2022-12-11T07:39:18.809Z,40.72
2022-12-11T07:41:23.169Z,40.74
2022-12-11T07:43:27.502Z,40.69
2022-12-11T07:45:32.062Z,40.68
2022-12-11T07:47:36.571Z,40.67
2022-12-11T07:49:40.855Z,40.71
2022-12-11T07:51:45.197Z,40.66
2022-12-11T07:53:49.542Z,40.69
2022-12-11T07:55:53.875Z,40.63
2022-12-11T07:57:58.287Z,40.61
2022-12-11T08:00:02.570Z,40.65
2022-12-11T08:02:07.133Z,40.79
2022-12-11T08:04:11.504Z,40.75
2022-12-11T08:06:15.846Z,40.73
2022-12-11T08:08:20.499Z,40.75
2022-12-11T08:10:24.979Z,40.77
2022-12-11T08:12:29.351Z,40.84
2022-12-11T08:14:33.665Z,40.9
2022-12-11T08:16:38.199Z,40.94
2022-12-11T08:18:42.582Z,41.06
2022-12-11T08:20:46.897Z,41.18
2022-12-11T08:22:59.114Z,41.25
2022-12-11T08:25:03.724Z,41.39
2022-12-11T08:27:08.022Z,41.2
2022-12-11T08:29:12.359Z,41.13
2022-12-11T08:31:16.928Z,41.14
2022-12-11T08:33:21.266Z,41.15
2022-12-11T08:35:25.583Z,41.06
2022-12-11T08:37:29.852Z,41.06
2022-12-11T08:39:34.166Z,41.21
2022-12-11T08:41:38.509Z,40.53
2022-12-11T08:43:42.926Z,35.7
2022-12-11T08:45:47.443Z,33.2
2022-12-11T08:47:51.755Z,33.59
2022-12-11T08:49:56.045Z,32.57
2022-12-11T08:52:00.384Z,31.42
2022-12-11T08:54:04.697Z,31.36
2022-12-11T08:56:08.985Z,30.36
2022-12-11T08:58:13.305Z,30.68
2022-12-11T09:00:17.599Z,29.61
2022-12-11T09:02:22.223Z,30.13
2022-12-11T09:04:26.575Z,29.33
2022-12-11T09:06:30.940Z,30.5
2022-12-11T09:08:35.274Z,31.54
2022-12-11T09:10:39.606Z,32.17
2022-12-11T09:12:43.978Z,32.59
2022-12-11T09:14:48.304Z,33.34
2022-12-11T09:16:52.682Z,33.36
2022-12-11T09:18:57.022Z,33.71
2022-12-11T09:21:01.343Z,34.15
2022-12-11T09:23:05.698Z,34.43
2022-12-11T09:25:11.181Z,34.67
2022-12-11T09:27:15.657Z,34.79
2022-12-11T09:29:19.953Z,34.9
2022-12-11T09:31:24.582Z,35.08
2022-12-11T09:33:28.952Z,35.26
2022-12-11T09:35:33.253Z,35.44
2022-12-11T09:37:37.610Z,35.49
2022-12-11T09:39:41.948Z,35.57
2022-12-11T09:41:46.264Z,35.61
2022-12-11T09:43:50.645Z,35.83
2022-12-11T09:45:55.199Z,35.73
2022-12-11T09:47:59.528Z,35.96
2022-12-11T09:50:03.855Z,35.88
2022-12-11T09:52:08.174Z,35.92
2022-12-11T09:54:12.504Z,36.11
2022-12-11T09:56:16.760Z,36.19
2022-12-11T09:58:21.067Z,36.24
2022-12-11T10:00:25.365Z,35.98
2022-12-11T10:02:29.943Z,36.21
2022-12-11T10:04:34.491Z,36.48
2022-12-11T10:06:38.841Z,36.33
2022-12-11T10:08:43.139Z,36.24
2022-12-11T10:10:47.487Z,35.89
2022-12-11T10:12:51.821Z,35.81
2022-12-11T10:14:56.290Z,35.84
2022-12-11T10:17:00.669Z,35.8
2022-12-11T10:19:04.979Z,35.66
2022-12-11T10:21:09.297Z,35.73
2022-12-11T10:23:13.622Z,35.77
2022-12-11T10:25:17.908Z,35.84
2022-12-11T10:27:22.382Z,35.86
2022-12-11T10:29:26.712Z,35.94
2022-12-11T10:31:31.369Z,35.87
2022-12-11T10:33:35.840Z,36.08
2022-12-11T10:35:40.182Z,36.15
2022-12-11T10:37:44.505Z,36.13
2022-12-11T10:39:48.910Z,36.03
2022-12-11T10:41:53.207Z,36.21
2022-12-11T10:43:57.555Z,36.22
2022-12-11T10:46:02.469Z,36.31
2022-12-11T10:48:06.841Z,36.14
2022-12-11T10:50:11.196Z,35.99
2022-12-11T10:52:15.583Z,35.71
2022-12-11T10:54:19.949Z,35.61
2022-12-11T10:56:24.372Z,35.5
2022-12-11T10:58:28.794Z,35.37
2022-12-11T11:00:33.112Z,35.31
2022-12-11T11:02:37.769Z,35.39
2022-12-11T11:04:42.232Z,35.31
2022-12-11T11:06:46.586Z,35.23
2022-12-11T11:08:50.976Z,35.65
2022-12-11T11:10:55.345Z,35.75
2022-12-11T11:12:59.748Z,36.07
2022-12-11T11:15:04.088Z,36.1
2022-12-11T11:17:08.433Z,36.14
2022-12-11T11:19:12.835Z,36.18
2022-12-11T11:21:17.253Z,36.27
2022-12-11T11:23:21.584Z,36.96
2022-12-11T11:25:25.886Z,37.69
2022-12-11T11:27:30.237Z,38.07
2022-12-11T11:29:34.532Z,38.53
2022-12-11T11:31:39.275Z,38.66
2022-12-11T11:33:43.634Z,38.72
2022-12-11T11:35:48.019Z,38.85
2022-12-11T11:37:52.355Z,38.84
2022-12-11T11:39:56.645Z,38.89
2022-12-11T11:42:01.020Z,39.04
2022-12-11T11:44:05.329Z,39.25
2022-12-11T11:46:09.845Z,39.2
2022-12-11T11:48:14.212Z,39.42
2022-12-11T11:50:18.530Z,39.5
2022-12-11T11:52:22.892Z,39.61
2022-12-11T11:54:27.196Z,39.29
2022-12-11T11:56:31.505Z,39.34
2022-12-11T11:58:35.814Z,39.16
2022-12-11T12:00:40.198Z,39.34
2022-12-11T12:02:44.764Z,39.21
2022-12-11T12:04:49.127Z,39.12
2022-12-11T12:06:53.445Z,39.25
2022-12-11T12:08:57.744Z,39.22
2022-12-11T12:11:02.088Z,39.21
2022-12-11T12:13:49.351Z,39.21
2022-12-11T12:15:54.706Z,39.17
2022-12-11T12:17:59.089Z,39.03
2022-12-11T12:20:03.433Z,39.1
2022-12-11T12:22:07.736Z,38.93
2022-12-11T12:24:12.063Z,38.94
2022-12-11T12:26:16.361Z,38.98
2022-12-11T12:28:20.691Z,39.01
2022-12-11T12:30:26.094Z,38.95
2022-12-11T12:32:30.371Z,38.8
2022-12-11T12:34:34.699Z,38.91
2022-12-11T12:36:38.998Z,38.85
2022-12-11T12:38:43.357Z,38.84
2022-12-11T12:40:47.667Z,38.81
2022-12-11T12:42:52.029Z,38.63
2022-12-11T12:44:56.351Z,38.53
2022-12-11T12:47:00.665Z,38.67
2022-12-11T12:49:04.981Z,38.54
2022-12-11T12:51:09.312Z,38.76
2022-12-11T12:53:13.663Z,38.7
2022-12-11T12:55:18.008Z,38.65
2022-12-11T12:57:22.328Z,38.62
2022-12-11T12:59:26.707Z,38.55
2022-12-11T13:01:31.280Z,38.91
2022-12-11T13:03:35.681Z,38.7
2022-12-11T13:05:40.002Z,38.56
2022-12-11T13:07:44.333Z,38.42
2022-12-11T13:09:48.759Z,38.48
2022-12-11T13:11:53.082Z,38.62
2022-12-11T13:13:57.388Z,38.74
2022-12-11T13:16:01.952Z,38.67
2022-12-11T13:18:06.338Z,38.45
2022-12-11T13:20:10.685Z,38.4
2022-12-11T13:22:14.946Z,38.91
2022-12-11T13:24:19.301Z,38.47
2022-12-11T13:26:23.614Z,38.42
2022-12-11T13:28:27.950Z,38.47
2022-12-11T13:30:32.289Z,38.63
2022-12-11T13:32:36.646Z,38.63
2022-12-11T13:34:41.083Z,39.05
2022-12-11T13:36:45.650Z,39.07
2022-12-11T13:38:50.104Z,39.64
2022-12-11T13:40:54.432Z,40.06
2022-12-11T13:42:58.885Z,40.15
2022-12-11T13:45:03.199Z,40.15
2022-12-11T13:47:07.636Z,39.99
2022-12-11T13:49:11.967Z,40.05
2022-12-11T13:51:16.255Z,40.06
2022-12-11T13:53:20.572Z,39.6
2022-12-11T13:55:24.933Z,39.39
2022-12-11T13:57:29.293Z,39.19
2022-12-11T13:59:33.656Z,39.24
2022-12-11T14:01:38.009Z,39.5
2022-12-11T14:03:42.430Z,39.34
2022-12-11T14:05:46.726Z,39.13
2022-12-11T14:07:51.369Z,39.21
2022-12-11T14:09:55.735Z,38.97
2022-12-11T14:12:00.100Z,39.34
2022-12-11T14:14:04.419Z,39.22
2022-12-11T14:16:08.912Z,39.63
2022-12-11T14:18:13.296Z,39.54
2022-12-11T14:20:17.614Z,40.54
2022-12-11T14:22:21.937Z,40.6
2022-12-11T14:24:26.257Z,40.67
2022-12-11T14:26:30.565Z,40.82
2022-12-11T14:28:34.879Z,40.58
2022-12-11T14:30:39.210Z,40.75
2022-12-11T14:32:43.497Z,40.6
2022-12-11T14:34:47.803Z,40.37
2022-12-11T14:36:52.137Z,40.35
2022-12-11T14:38:56.420Z,40.57
2022-12-11T14:41:00.744Z,40.75
2022-12-11T14:43:05.065Z,40.5
2022-12-11T14:45:09.413Z,40.41
2022-12-11T14:47:13.760Z,40.47
2022-12-11T14:49:18.101Z,40
2022-12-11T14:51:22.393Z,39.62
2022-12-11T14:53:26.730Z,39.47
2022-12-11T14:55:31.049Z,39.49
2022-12-11T14:57:35.410Z,39.45
2022-12-11T14:59:39.831Z,39.86
2022-12-11T15:01:44.334Z,39.99
2022-12-11T15:03:48.663Z,40.1
2022-12-11T15:05:52.971Z,40.17
2022-12-11T15:07:57.621Z,40.02
2022-12-11T15:10:01.963Z,39.85
2022-12-11T15:12:06.290Z,39.55
2022-12-11T15:14:10.677Z,39.8
2022-12-11T15:16:16.041Z,39.77
2022-12-11T15:18:20.389Z,39.81
2022-12-11T15:20:24.715Z,39.82
2022-12-11T15:22:29.047Z,39.71
2022-12-11T15:24:33.379Z,39.72
2022-12-11T15:26:37.745Z,39.68
2022-12-11T15:28:42.124Z,39.71
2022-12-11T15:30:46.772Z,39.7
2022-12-11T15:32:51.168Z,39.67
2022-12-11T15:34:55.503Z,39.73
2022-12-11T15:36:59.803Z,39.39
2022-12-11T15:39:04.137Z,39.14
2022-12-11T15:41:08.459Z,39.13
2022-12-11T15:43:12.811Z,38.72
2022-12-11T15:45:17.146Z,38.85
2022-12-11T15:47:21.494Z,38.45
2022-12-11T15:49:25.849Z,38.7
2022-12-11T15:51:30.169Z,38.37
2022-12-11T15:53:34.493Z,38.52
2022-12-11T15:55:38.831Z,38.58
2022-12-11T15:57:43.174Z,38.7
2022-12-11T15:59:47.746Z,38.86
2022-12-11T16:01:52.436Z,38.57
2022-12-11T16:04:05.056Z,38.57
2022-12-11T16:06:09.586Z,38.81
2022-12-11T16:08:14.148Z,38.88
2022-12-11T16:10:18.574Z,38.96
2022-12-11T16:12:22.897Z,38.98
2022-12-11T16:14:27.199Z,39.2
2022-12-11T16:16:31.524Z,39.39
2022-12-11T16:18:35.825Z,39.57
2022-12-11T16:20:40.173Z,39.68
2022-12-11T16:22:44.501Z,39.86
2022-12-11T16:24:48.837Z,39.89
2022-12-11T16:26:53.189Z,40.01
2022-12-11T16:28:57.541Z,40.27
2022-12-11T16:31:02.047Z,40.19
2022-12-11T16:33:14.682Z,40.28
2022-12-11T16:35:19.055Z,40.38
2022-12-11T16:37:23.369Z,40.42
2022-12-11T16:39:27.676Z,40.67
2022-12-11T16:41:32.058Z,40.76
2022-12-11T16:43:36.436Z,40.89
2022-12-11T16:45:40.839Z,40.82
2022-12-11T16:47:45.184Z,40.97
2022-12-11T16:49:49.481Z,41.01
2022-12-11T16:51:53.771Z,41.35
2022-12-11T16:53:58.092Z,40.83
2022-12-11T16:56:02.406Z,40.34
2022-12-11T16:58:07.071Z,40.37
2022-12-11T17:03:27.097Z,39.97
2022-12-11T17:05:31.400Z,39.13
2022-12-11T17:07:35.759Z,37
2022-12-11T17:09:40.125Z,35.84
2022-12-11T17:11:44.416Z,35.23
2022-12-11T17:13:48.705Z,35.09
2022-12-11T17:15:53.215Z,34.97
2022-12-11T17:17:57.544Z,34.91
2022-12-11T17:20:01.862Z,35.02
2022-12-11T17:22:06.186Z,35.37
2022-12-11T17:24:10.533Z,35.81
2022-12-11T17:26:14.861Z,35.96
2022-12-11T17:28:19.140Z,35.47
2022-12-11T17:30:23.450Z,35.66
2022-12-11T17:32:27.753Z,35.46
2022-12-11T17:34:39.896Z,35.46
2022-12-11T17:36:44.205Z,35.25
2022-12-11T17:38:48.763Z,35.76
2022-12-11T17:40:53.244Z,35.73
2022-12-11T17:42:57.608Z,35.67
2022-12-11T17:45:02.077Z,35.78
2022-12-11T17:47:12.802Z,35.21
2022-12-11T17:49:17.133Z,34.85
2022-12-11T17:51:21.457Z,34.9
2022-12-11T17:53:25.867Z,35.15
2022-12-11T17:55:30.312Z,34.7
2022-12-11T17:57:34.689Z,35.04
2022-12-11T17:59:39.049Z,34.76
2022-12-11T18:01:43.710Z,35.33
2022-12-11T18:03:48.346Z,34.77
2022-12-11T18:05:52.801Z,35.2
2022-12-11T18:08:00.176Z,34.76
2022-12-11T18:10:04.566Z,34.48
2022-12-11T18:12:08.866Z,35.42
2022-12-11T18:14:19.163Z,35.22
2022-12-11T18:16:23.901Z,35.28
2022-12-11T18:18:28.435Z,35.15
2022-12-11T18:20:32.869Z,35.29
2022-12-11T18:22:37.327Z,35.15
2022-12-11T18:24:41.647Z,35.27
2022-12-11T18:26:46.021Z,35.07
2022-12-11T18:28:51.507Z,35.27
2022-12-11T18:30:56.102Z,35.38
2022-12-11T18:33:00.493Z,35.4
2022-12-11T18:35:04.817Z,35.31
2022-12-11T18:37:09.249Z,35.23
2022-12-11T18:39:13.621Z,35.07
2022-12-11T18:41:18.015Z,34.22
2022-12-11T18:43:22.379Z,34.59
2022-12-11T18:45:26.738Z,34.83
2022-12-11T18:47:31.149Z,34.53
2022-12-11T18:49:36.167Z,35.36
2022-12-11T18:51:40.572Z,35.46
2022-12-11T18:53:45.260Z,34.39
2022-12-11T18:55:49.814Z,34.97
2022-12-11T18:57:54.209Z,34.9
2022-12-11T18:59:58.657Z,34.65
2022-12-11T19:02:03.190Z,35.15
2022-12-11T19:04:12.830Z,35.01
2022-12-11T19:06:17.201Z,34.55
2022-12-11T19:08:21.913Z,34.74
2022-12-11T19:10:26.462Z,34.31
2022-12-11T19:12:30.844Z,34.31
2022-12-11T19:14:35.206Z,34.36
2022-12-11T19:16:39.833Z,34.5
2022-12-11T19:18:44.282Z,34.38
2022-12-11T19:21:06.636Z,34.3
2022-12-11T19:23:12.815Z,34.38
2022-12-11T19:25:17.202Z,34.36
2022-12-11T19:27:21.597Z,34.2
2022-12-11T19:29:26.138Z,34.28
2022-12-11T19:31:30.839Z,34.52
2022-12-11T19:33:35.223Z,34.83
2022-12-11T19:35:39.638Z,34.46
2022-12-11T19:37:44.009Z,34.69
2022-12-11T19:39:48.408Z,34.99
2022-12-11T19:41:52.797Z,35.18
2022-12-11T19:43:57.237Z,35.15
2022-12-11T19:46:01.605Z,34.64
2022-12-11T19:48:06.088Z,34.82
2022-12-11T19:50:10.399Z,35.07
2022-12-11T19:52:14.784Z,34.54
2022-12-11T19:54:19.123Z,34.91
2022-12-11T19:56:23.572Z,34.77
2022-12-11T19:58:27.929Z,35.07
2022-12-11T20:00:32.503Z,35.11
2022-12-11T20:02:36.929Z,34.72
2022-12-11T20:04:41.319Z,34.84
2022-12-11T20:06:45.767Z,34.77
2022-12-11T20:08:50.420Z,34.7
2022-12-11T20:10:54.766Z,34.96
2022-12-11T20:12:59.134Z,35.07
2022-12-11T20:15:03.476Z,35.13
2022-12-11T20:17:16.883Z,35.42
2022-12-11T20:19:21.231Z,35.56
2022-12-11T20:21:25.555Z,35.66
2022-12-11T20:23:29.898Z,35.69
2022-12-11T20:25:34.317Z,35.89
2022-12-11T20:27:39.871Z,35.91
2022-12-11T20:29:44.387Z,35.92
2022-12-11T20:31:49.084Z,36.1
2022-12-11T20:33:53.492Z,36.13
2022-12-11T20:35:57.796Z,36.04
2022-12-11T20:38:02.128Z,34.03
2022-12-11T20:40:06.474Z,30.46
2022-12-11T20:42:10.916Z,29.69
2022-12-11T20:44:15.276Z,28.45
2022-12-11T20:46:19.932Z,27.54
2022-12-11T20:48:24.237Z,26.36
2022-12-11T20:50:28.633Z,27.16
2022-12-11T20:52:33.592Z,28.84
2022-12-11T20:54:37.968Z,29.86
2022-12-11T20:56:42.407Z,30.22
2022-12-11T20:58:47.124Z,30.39
2022-12-11T21:00:51.682Z,30.55
2022-12-11T21:02:56.155Z,30.79
2022-12-11T21:05:00.489Z,30.9
2022-12-11T21:07:04.844Z,30.99
2022-12-11T21:09:09.258Z,31.23
2022-12-11T21:11:13.578Z,31.35
2022-12-11T21:13:17.867Z,31.33
2022-12-11T21:15:22.237Z,31.65
2022-12-11T21:17:26.548Z,31.6
2022-12-11T21:19:30.911Z,32.26
2022-12-11T21:21:35.262Z,32.07
2022-12-11T21:23:39.618Z,32.04
2022-12-11T21:25:44.148Z,32.19
2022-12-11T21:27:48.710Z,32.36
2022-12-11T21:29:53.083Z,32.43
2022-12-11T21:31:57.783Z,32.62
2022-12-11T21:34:02.208Z,32.78
2022-12-11T21:36:06.603Z,32.59
2022-12-11T21:38:10.996Z,32.61
2022-12-11T21:40:15.310Z,32.7
2022-12-11T21:42:19.715Z,33.09
2022-12-11T21:47:58.506Z,32.95
2022-12-11T21:50:02.804Z,32.83
2022-12-11T21:52:07.226Z,32.83
2022-12-11T21:54:11.483Z,32.94
2022-12-11T21:56:15.815Z,32.97
2022-12-11T21:58:20.213Z,33.03
2022-12-11T22:00:24.536Z,33.14
2022-12-11T22:02:29.150Z,32.92
2022-12-11T22:04:33.568Z,33.08
2022-12-11T22:06:39.778Z,33.05
2022-12-11T22:08:44.133Z,33.12
2022-12-11T22:10:48.448Z,33.4
2022-12-11T22:12:52.742Z,33.6
2022-12-11T22:14:57.061Z,33.9
2022-12-11T22:17:01.750Z,33.76
2022-12-11T22:19:06.261Z,33.74
2022-12-11T22:21:10.624Z,33.73
2022-12-11T22:23:15.136Z,33.86
2022-12-11T22:25:19.605Z,34
2022-12-11T22:27:25.946Z,34.36
2022-12-11T22:29:30.331Z,34.13
2022-12-11T22:31:34.914Z,34.22
2022-12-11T22:33:39.240Z,34.28
2022-12-11T22:35:43.665Z,34.24
2022-12-11T22:37:48.036Z,34.17
2022-12-11T22:39:52.423Z,34.23
2022-12-11T22:41:56.807Z,34.12
2022-12-11T22:44:01.111Z,34.19
2022-12-11T22:46:05.820Z,34.2
2022-12-11T22:48:10.196Z,34.08
2022-12-11T22:50:14.573Z,34.08
2022-12-11T22:52:18.978Z,34.17
2022-12-11T22:54:23.247Z,34.48
2022-12-11T22:56:27.538Z,34.41
2022-12-11T22:58:31.847Z,34.43
2022-12-11T23:00:36.234Z,34.33
2022-12-11T23:02:41.163Z,34.78
2022-12-11T23:04:45.568Z,34.4
2022-12-11T23:06:49.882Z,34.33
2022-12-11T23:08:54.358Z,34.59
2022-12-11T23:10:58.733Z,34.7
2022-12-11T23:13:03.049Z,34.73
2022-12-11T23:15:07.418Z,34.95
2022-12-11T23:17:11.906Z,35.18
2022-12-11T23:19:18.543Z,34.96
2022-12-11T23:21:23.944Z,35.19
2022-12-11T23:23:28.527Z,35.1
2022-12-11T23:25:32.831Z,35.07
2022-12-11T23:27:37.151Z,35.06
2022-12-11T23:29:41.495Z,35.26
2022-12-11T23:31:45.856Z,35.34
2022-12-11T23:33:50.156Z,35.23
2022-12-11T23:35:54.446Z,35.28
2022-12-11T23:37:58.759Z,35.05
2022-12-11T23:40:03.102Z,35.28
2022-12-11T23:42:07.368Z,35.36
2022-12-11T23:44:11.700Z,35.08
2022-12-11T23:46:16.219Z,35.38
2022-12-11T23:48:20.644Z,35.09
2022-12-11T23:50:25.013Z,35.39
2022-12-11T23:52:29.332Z,35.09
2022-12-11T23:54:33.664Z,35.48
2022-12-11T23:56:37.959Z,35.2
2022-12-11T23:58:42.260Z,35.52
